Time;durP1;ratioP1;P1;durP2;ratioP2;P2;SDS_P1;SDS_P2;PMS_P1;PMS_P2;Temp;Humidity;BMP_temperature;BMP_pressure;BME280_temperature;BME280_humidity;BME280_pressure;Samples;Min_cycle;Max_cycle;Signal;HPM_P1;HPM_P2
2022/06/20 00:00:16;;;;;;;17.25;4.68;;;;;;;13.10;81.11;101382.66;6276733;22;20022;-84
2022/06/20 00:02:48;;;;;;;16.38;3.95;;;;;;;13.08;81.13;101368.97;6276694;22;20057;-86
2022/06/20 00:05:20;;;;;;;14.38;4.18;;;;;;;13.01;81.82;101372.91;6274720;22;20007;-85
2022/06/20 00:07:46;;;;;;;12.43;4.40;;;;;;;12.94;82.22;101361.25;6277194;22;20031;-84
2022/06/20 00:10:17;;;;;;;14.23;4.32;;;;;;;12.61;82.26;101328.78;6276337;22;20015;-83
2022/06/20 00:12:44;;;;;;;15.25;4.65;;;;;;;12.97;81.71;101375.75;6276457;22;20007;-85
2022/06/20 00:15:20;;;;;;;14.70;4.72;;;;;;;12.76;80.57;101341.69;6276825;22;20008;-84
2022/06/20 00:17:45;;;;;;;15.43;4.40;;;;;;;12.59;81.65;101304.75;6275514;22;20015;-87
2022/06/20 00:20:26;;;;;;;16.40;4.20;;;;;;;12.96;82.50;101368.91;6249414;22;20008;-84
2022/06/20 00:22:55;;;;;;;20.15;4.93;;;;;;;12.53;83.87;101304.28;6276329;22;20503;-85
2022/06/20 00:25:37;;;;;;;16.20;4.53;;;;;;;12.16;81.35;101239.28;6276660;22;20007;-84
2022/06/20 00:28:03;;;;;;;13.48;3.67;;;;;;;11.98;82.18;101219.72;6276454;22;20030;-84
2022/06/20 00:30:31;;;;;;;13.73;4.38;;;;;;;12.82;82.01;101373.22;6276287;22;20102;-86
2022/06/20 00:33:06;;;;;;;18.05;4.35;;;;;;;12.46;82.61;101342.69;6276445;22;20007;-85
2022/06/20 00:35:38;;;;;;;17.70;4.00;;;;;;;11.57;82.70;101209.31;6276420;22;20015;-85
2022/06/20 00:38:17;;;;;;;14.25;3.95;;;;;;;11.59;81.90;101212.63;6276394;22;20030;-84
2022/06/20 00:44:38;;;;;;;14.68;3.97;;;;;;;12.03;84.51;101322.06;6199050;22;20019;-85
2022/06/20 00:47:29;;;;;;;17.20;3.78;;;;;;;12.96;82.32;101488.16;6276356;22;20114;-85
2022/06/20 00:50:11;;;;;;;14.52;4.03;;;;;;;12.90;83.34;101505.78;6276538;22;20007;-84
2022/06/20 00:52:54;;;;;;;12.20;3.40;;;;;;;12.62;82.88;101469.53;6276324;22;20092;-85
2022/06/20 00:55:19;;;;;;;12.50;4.32;;;;;;;13.01;82.69;101535.41;6276184;22;20070;-86
2022/06/20 00:58:10;;;;;;;16.17;4.22;;;;;;;13.07;82.89;101568.72;6276530;22;20031;-85
2022/06/20 01:00:38;;;;;;;15.25;4.03;;;;;;;13.08;82.35;101594.56;6276206;22;20371;-84
2022/06/20 01:03:23;;;;;;;20.75;4.43;;;;;;;12.85;82.42;101545.88;6275776;22;20003;-86
2022/06/20 01:06:10;;;;;;;13.77;3.80;;;;;;;12.64;81.98;101497.00;6276059;22;20004;-86
2022/06/20 01:08:44;;;;;;;18.02;4.30;;;;;;;12.77;82.36;101498.84;6276118;22;20003;-85
2022/06/20 01:11:17;;;;;;;13.30;3.88;;;;;;;12.87;82.92;101495.59;6276117;22;20035;-84
2022/06/20 01:13:44;;;;;;;14.95;3.53;;;;;;;13.20;82.12;101534.19;6275838;22;20007;-86
2022/06/20 01:16:12;;;;;;;10.10;4.13;;;;;;;13.23;82.71;101520.19;6276124;22;20054;-86
2022/06/20 01:18:40;;;;;;;10.80;3.97;;;;;;;13.20;81.99;101516.03;6275975;22;20011;-85
2022/06/20 01:21:13;;;;;;;15.13;3.78;;;;;;;13.15;82.36;101504.25;6276066;22;20000;-86
2022/06/20 01:24:00;;;;;;;12.30;3.50;;;;;;;13.16;83.22;101509.31;6276531;22;20000;-86
2022/06/20 01:26:41;;;;;;;14.75;3.65;;;;;;;13.11;82.25;101514.00;6275958;22;20352;-85
2022/06/20 01:29:09;;;;;;;15.57;3.95;;;;;;;12.85;84.61;101465.50;6276108;22;20357;-86
2022/06/20 01:31:39;;;;;;;9.30;3.60;;;;;;;12.83;85.09;101472.56;6276100;22;20011;-85
2022/06/20 01:34:04;;;;;;;14.15;4.35;;;;;;;12.88;85.69;101476.53;6273607;22;20011;-85
2022/06/20 01:39:19;;;;;;;11.32;3.90;;;;;;;12.30;86.63;101409.34;6275929;22;20392;-86
2022/06/20 01:44:36;;;;;;;14.43;4.57;;;;;;;12.48;87.32;101456.56;6276073;22;20011;-84
2022/06/20 01:47:21;;;;;;;18.83;4.15;;;;;;;11.75;86.82;101340.13;6248150;22;20003;-87
2022/06/20 01:50:02;;;;;;;13.52;4.20;;;;;;;11.99;86.22;101374.91;6276077;22;20004;-85
2022/06/20 01:52:46;;;;;;;13.82;4.03;;;;;;;11.23;85.99;101246.72;6276131;22;20004;-85
2022/06/20 01:55:26;;;;;;;19.90;4.88;;;;;;;11.79;87.56;101344.19;6275903;22;20000;-83
2022/06/20 01:58:16;;;;;;;20.20;5.03;;;;;;;12.28;88.07;101432.72;6248887;22;20014;-86
2022/06/20 02:00:41;;;;;;;11.82;4.18;;;;;;;11.54;88.36;101307.78;6275650;22;20082;-86
2022/06/20 02:03:11;;;;;;;18.40;5.43;;;;;;;12.23;87.45;101423.56;6275664;22;20034;-86
2022/06/20 02:05:37;;;;;;;15.00;5.28;;;;;;;12.21;89.08;101440.97;6275873;22;20019;-85
2022/06/20 02:17:37;;;;;;;15.43;4.53;;;;;;;10.93;87.16;101208.00;6093542;23;20017;-86
2022/06/20 02:30:01;;;;;;;17.75;5.25;;;;;;;10.92;85.66;101194.25;6286786;22;20030;-85
2022/06/20 02:32:41;;;;;;;18.42;4.50;;;;;;;11.72;86.26;101304.94;6281305;22;20097;-86
2022/06/20 02:35:18;;;;;;;15.00;4.88;;;;;;;11.34;85.54;101239.97;6308652;22;19999;-83
2022/06/20 02:37:50;;;;;;;10.80;3.97;;;;;;;11.23;85.02;101237.19;6308722;22;20007;-83
2022/06/20 02:40:22;;;;;;;19.48;5.60;;;;;;;11.72;85.16;101319.63;6308491;22;20010;-85
2022/06/20 02:45:33;;;;;;;10.82;4.28;;;;;;;12.06;84.81;101378.81;6307407;22;19929;-86
2022/06/20 02:48:22;;;;;;;18.90;4.50;;;;;;;10.76;84.02;101159.88;6281102;22;20031;-85
2022/06/20 02:51:03;;;;;;;15.60;4.65;;;;;;;11.56;84.05;101286.06;6309018;22;20008;-84
2022/06/20 02:54:02;;;;;;;14.30;4.50;;;;;;;11.03;84.08;101194.44;6308307;22;20106;-86
2022/06/20 02:56:33;;;;;;;13.45;4.38;;;;;;;11.59;84.21;101287.63;6308203;22;20416;-85
2022/06/20 02:59:05;;;;;;;14.43;4.68;;;;;;;11.51;84.36;101274.34;6308290;22;20085;-86
2022/06/20 03:01:39;;;;;;;13.30;4.47;;;;;;;11.97;84.71;101348.31;6231538;22;20011;-86
2022/06/20 03:04:07;;;;;;;15.65;4.72;;;;;;;11.96;84.60;101338.03;6308315;22;20050;-86
2022/06/20 03:06:35;;;;;;;20.65;4.93;;;;;;;11.68;85.06;101280.16;6308427;22;19999;-83
2022/06/20 03:09:01;;;;;;;16.15;4.47;;;;;;;11.99;85.15;101335.25;6307784;22;20423;-83
2022/06/20 03:11:32;;;;;;;13.40;4.40;;;;;;;11.81;84.98;101295.00;6280765;22;20004;-83
2022/06/20 03:14:01;;;;;;;19.63;4.88;;;;;;;12.00;85.49;101327.44;6308041;22;20078;-83
2022/06/20 03:16:28;;;;;;;16.23;4.55;;;;;;;12.01;84.71;101310.13;6307452;22;20428;-82
2022/06/20 03:18:57;;;;;;;15.52;4.95;;;;;;;11.14;84.33;101176.53;6307538;22;20064;-83
2022/06/20 03:21:36;;;;;;;13.35;4.25;;;;;;;10.88;83.93;101130.72;6307988;22;20344;-83
2022/06/20 03:24:03;;;;;;;14.82;4.80;;;;;;;11.60;84.16;101247.91;6280836;22;20003;-84
2022/06/20 03:26:30;;;;;;;13.65;4.70;;;;;;;12.10;84.47;101329.47;6307792;22;20011;-82
2022/06/20 03:29:25;;;;;;;14.82;4.68;;;;;;;12.12;84.27;101343.97;6308097;22;20003;-82
2022/06/20 03:31:51;;;;;;;12.82;4.60;;;;;;;10.83;84.36;101137.94;6307853;22;20435;-83
2022/06/20 03:34:36;;;;;;;12.63;4.55;;;;;;;10.84;83.85;101161.09;6307870;22;20401;-84
2022/06/20 03:37:07;;;;;;;8.27;3.58;;;;;;;11.70;83.94;101293.00;6307380;22;20035;-83
2022/06/20 03:39:36;;;;;;;16.47;4.57;;;;;;;11.37;83.91;101244.97;6307486;22;19999;-84
2022/06/20 03:42:06;;;;;;;13.35;4.78;;;;;;;11.78;84.19;101295.97;6307577;22;20775;-82
2022/06/20 03:45:02;;;;;;;15.70;5.05;;;;;;;11.33;84.32;101217.63;6307425;22;20310;-83
2022/06/20 03:47:47;;;;;;;14.27;5.15;;;;;;;11.08;84.94;101171.72;6307877;22;20003;-83
2022/06/20 03:50:58;;;;;;;14.10;5.50;;;;;;;11.81;84.72;101288.06;6307589;22;20007;-83
2022/06/20 03:54:08;;;;;;;12.68;4.32;;;;;;;12.45;85.36;101398.03;6213126;23;20012;-83
2022/06/20 03:57:09;;;;;;;16.23;5.05;;;;;;;12.52;84.85;101406.25;6213368;23;20020;-83
2022/06/20 04:00:25;;;;;;;17.55;4.88;;;;;;;11.46;84.31;101234.06;6213123;23;20445;-83
2022/06/20 04:03:09;;;;;;;16.27;4.43;;;;;;;12.58;85.43;101419.63;6123170;23;20324;-83
2022/06/20 04:05:57;;;;;;;15.13;4.38;;;;;;;11.13;84.95;101171.47;6123662;23;20028;-83
2022/06/20 04:12:19;;;;;;;15.02;4.55;;;;;;;12.72;84.79;101417.97;6036830;23;20022;-84
2022/06/20 04:15:09;;;;;;;20.20;5.60;;;;;;;12.74;85.64;101423.88;6060450;23;20015;-83
2022/06/20 04:20:54;;;;;;;17.50;5.85;;;;;;;11.67;85.01;101255.22;6036693;23;20497;-83
2022/06/20 04:23:49;;;;;;;16.60;6.10;;;;;;;12.58;85.56;101396.31;6047969;23;20020;-83
2022/06/20 04:29:55;;;;;;;17.15;6.07;;;;;;;13.07;85.59;101447.66;6094019;23;20025;-84
2022/06/20 04:33:07;;;;;;;18.88;6.38;;;;;;;13.16;84.75;101452.28;6075446;23;20054;-83
2022/06/20 04:35:45;;;;;;;17.80;5.93;;;;;;;12.02;83.91;101263.44;6212575;23;20005;-84
2022/06/20 04:38:41;;;;;;;15.70;5.80;;;;;;;13.20;83.96;101460.75;6212818;23;20004;-83
2022/06/20 04:42:04;;;;;;;14.45;5.10;;;;;;;11.87;84.32;101235.09;6212770;23;20019;-85
2022/06/20 04:45:00;;;;;;;15.88;4.70;;;;;;;12.55;83.81;101342.13;6212689;23;20032;-83
2022/06/20 04:48:02;;;;;;;14.88;4.65;;;;;;;12.86;83.66;101389.41;6247875;22;20030;-85
2022/06/20 04:50:44;;;;;;;13.10;4.95;;;;;;;12.81;84.18;101376.75;6307618;22;20003;-85
2022/06/20 04:53:14;;;;;;;12.27;4.90;;;;;;;13.32;84.68;101480.69;6307097;22;19999;-85
2022/06/20 04:55:46;;;;;;;15.13;4.85;;;;;;;12.07;84.87;101253.63;6307266;22;20095;-85
2022/06/20 04:58:42;;;;;;;11.65;4.90;;;;;;;12.61;84.67;101343.50;6307187;22;20007;-85
2022/06/20 05:01:16;;;;;;;18.10;5.47;;;;;;;13.12;84.77;101411.91;6279404;22;20053;-85
2022/06/20 05:04:04;;;;;;;14.60;4.95;;;;;;;12.74;84.29;101334.00;6307278;22;20006;-85
2022/06/20 05:06:42;;;;;;;12.77;5.13;;;;;;;12.42;83.53;101273.06;6306152;22;20012;-85
2022/06/20 05:09:48;;;;;;;14.88;6.28;;;;;;;13.72;83.71;101484.13;6279395;22;20004;-85
2022/06/20 05:13:10;;;;;;;17.35;5.30;;;;;;;13.75;83.81;101485.69;6279392;22;20054;-86
2022/06/20 05:15:58;;;;;;;17.33;5.70;;;;;;;13.69;82.90;101488.72;6307114;22;20007;-85
2022/06/20 05:25:25;;;;;;;14.15;4.70;;;;;;;12.54;82.83;101273.09;6152178;23;20417;-85
2022/06/20 05:28:11;;;;;;;16.42;4.95;;;;;;;12.85;81.75;101328.13;6152221;23;20009;-85
2022/06/20 05:30:37;;;;;;;15.80;5.03;;;;;;;12.86;81.23;101348.78;6152490;23;20343;-85
2022/06/20 05:33:05;;;;;;;16.10;6.25;;;;;;;13.86;81.59;101501.38;6152595;23;20068;-85
2022/06/20 05:35:40;;;;;;;12.95;4.57;;;;;;;13.83;81.14;101499.00;6177423;23;20006;-81
2022/06/20 05:38:39;;;;;;;17.10;4.47;;;;;;;14.00;81.17;101501.31;6152570;23;20029;-84
2022/06/20 05:41:08;;;;;;;12.70;5.05;;;;;;;13.16;80.38;101332.16;6152670;23;20472;-85
2022/06/20 05:43:55;;;;;;;12.68;4.88;;;;;;;13.75;79.83;101416.44;6152197;23;20037;-85
2022/06/20 05:46:41;;;;;;;17.27;5.28;;;;;;;14.35;79.70;101492.91;6152240;23;20021;-84
2022/06/20 05:52:43;;;;;;;13.10;4.50;;;;;;;14.76;78.94;101487.50;6111114;23;20063;-86
2022/06/20 05:55:15;;;;;;;;;;;;;;;15.02;78.51;101487.41;6152714;23;20017;-85
2022/06/20 05:57:47;;;;;;;14.73;4.88;;;;;;;14.99;76.73;101485.88;6154215;23;19909;-85
2022/06/20 06:01:18;;;;;;;13.77;4.60;;;;;;;15.03;77.32;101486.47;6213846;22;20011;-84
2022/06/20 06:03:46;;;;;;;16.00;4.55;;;;;;;15.01;76.74;101499.59;6212623;23;20012;-83
2022/06/20 06:06:45;;;;;;;13.02;4.60;;;;;;;15.02;76.80;101508.22;6188843;22;20036;-83
2022/06/20 06:09:39;;;;;;;13.63;5.20;;;;;;;13.72;77.13;101281.69;6214505;23;20004;-80
2022/06/20 06:12:14;;;;;;;15.10;5.15;;;;;;;14.29;75.31;101384.22;6188814;23;20059;-81
2022/06/20 06:17:58;;;;;;;13.20;4.70;;;;;;;15.39;74.77;101515.06;6307914;22;20026;-84
2022/06/20 06:20:32;;;;;;;14.85;5.10;;;;;;;15.04;73.91;101436.94;6307682;22;20030;-81
2022/06/20 06:23:07;;;;;;;13.75;4.40;;;;;;;15.01;73.23;101429.38;6308992;22;20421;-82
2022/06/20 06:25:48;;;;;;;9.50;4.55;;;;;;;14.62;72.77;101324.69;6308960;22;19999;-86
2022/06/20 06:28:38;;;;;;;13.33;4.27;;;;;;;15.79;69.56;101309.06;6308759;22;20029;-80
2022/06/20 06:34:45;;;;;;;12.30;3.47;;;;;;;17.19;62.18;101326.47;6152982;23;20009;-84
2022/06/20 06:37:30;;;;;;;10.77;3.45;;;;;;;18.24;62.40;101491.84;6307905;22;20003;-86
2022/06/20 06:40:36;;;;;;;15.02;4.00;;;;;;;18.96;60.63;101511.00;6280471;22;20490;-85
2022/06/20 06:43:37;;;;;;;20.38;3.60;;;;;;;19.11;60.15;101507.88;6308270;22;20014;-85
2022/06/20 06:46:42;;;;;;;8.82;3.13;;;;;;;19.28;60.00;101505.56;6280842;22;20038;-84
2022/06/20 06:49:40;;;;;;;13.13;3.15;;;;;;;20.06;57.93;101515.06;6280894;22;20014;-84
2022/06/20 06:52:34;;;;;;;10.32;3.38;;;;;;;20.13;56.02;101523.97;6280794;22;20007;-85
2022/06/20 06:55:05;;;;;;;11.68;3.13;;;;;;;20.19;54.46;101533.91;6281057;22;20015;-81
2022/06/20 06:57:41;;;;;;;12.38;4.00;;;;;;;19.86;54.51;101529.13;6281036;22;20140;-82
2022/06/20 07:00:06;;;;;;;10.35;3.58;;;;;;;19.39;54.79;101529.00;6308541;22;20074;-83
2022/06/20 07:02:37;;;;;;;9.50;3.83;;;;;;;19.03;56.94;101531.25;6308242;22;20030;-84
2022/06/20 07:05:14;;;;;;;10.88;3.63;;;;;;;18.36;58.28;101542.25;6308366;22;20014;-86
2022/06/20 07:07:41;;;;;;;11.30;3.92;;;;;;;18.67;57.90;101540.50;6308384;22;20030;-82
2022/06/20 07:10:17;;;;;;;13.88;4.07;;;;;;;19.16;56.06;101478.66;6308646;22;20323;-81
2022/06/20 07:12:49;;;;;;;13.82;3.95;;;;;;;19.03;56.32;101544.34;6308304;22;20085;-85
2022/06/20 07:15:20;;;;;;;10.95;3.60;;;;;;;18.28;58.48;101514.13;6307622;22;20010;-81
2022/06/20 07:17:56;;;;;;;13.88;3.95;;;;;;;18.35;64.19;101558.91;6308351;22;20045;-81
2022/06/20 07:20:26;;;;;;;11.07;4.10;;;;;;;18.19;63.67;101550.69;6308209;22;20328;-81
2022/06/20 07:22:52;;;;;;;12.45;3.72;;;;;;;18.20;61.91;101542.75;6308025;22;20030;-80
2022/06/20 07:25:22;;;;;;;9.73;3.65;;;;;;;19.62;57.83;101545.28;6308017;22;20011;-80
2022/06/20 07:27:54;;;;;;;12.98;3.25;;;;;;;19.96;53.04;101558.78;6307880;22;20000;-80
2022/06/20 07:30:26;;;;;;;12.35;3.75;;;;;;;20.09;58.08;101551.47;6280518;22;20007;-81
2022/06/20 07:32:58;;;;;;;12.05;3.67;;;;;;;19.63;59.32;101558.25;6307800;22;20007;-80
2022/06/20 07:35:35;;;;;;;7.32;3.45;;;;;;;19.60;55.71;101555.09;6307867;22;20117;-80
2022/06/20 07:38:12;;;;;;;11.93;3.92;;;;;;;20.65;54.19;101558.53;6307921;22;20022;-81
2022/06/20 07:41:13;;;;;;;12.20;3.58;;;;;;;22.84;53.42;101538.56;6280564;22;20010;-81
2022/06/20 07:43:46;;;;;;;9.88;3.17;;;;;;;23.44;48.37;101542.81;6158439;23;20575;-81
2022/06/20 07:46:17;;;;;;;10.23;3.72;;;;;;;22.59;49.58;101550.78;6183781;23;20005;-82
2022/06/20 07:48:45;;;;;;;10.00;3.90;;;;;;;21.61;48.90;101561.56;6182601;23;20038;-81
2022/06/20 07:51:15;;;;;;;10.60;3.80;;;;;;;20.86;50.78;101556.50;6183171;23;20005;-82
2022/06/20 07:53:44;;;;;;;14.90;4.32;;;;;;;19.87;51.62;101520.31;6183438;23;20009;-84
2022/06/20 07:56:18;;;;;;;13.25;3.63;;;;;;;19.83;56.40;101560.88;6183428;23;20088;-79
2022/06/20 07:59:03;;;;;;;11.27;3.95;;;;;;;19.22;55.30;101548.81;6183097;23;20331;-81
2022/06/20 08:01:51;;;;;;;10.82;3.67;;;;;;;19.22;56.93;101551.44;6183112;23;20009;-82
2022/06/20 08:04:27;;;;;;;12.50;3.95;;;;;;;19.61;58.63;101565.44;6182941;23;20004;-83
2022/06/20 08:07:08;;;;;;;11.25;3.60;;;;;;;19.70;55.71;101567.22;6158168;23;20339;-82
2022/06/20 08:09:56;;;;;;;10.45;3.78;;;;;;;19.77;55.06;101568.34;6183150;23;20370;-79
2022/06/20 08:12:32;;;;;;;13.77;4.22;;;;;;;19.70;53.56;101546.25;6183186;23;20385;-81
2022/06/20 08:15:07;;;;;;;13.13;4.00;;;;;;;19.41;51.24;101576.81;6183343;23;20012;-80
2022/06/20 08:17:33;;;;;;;11.35;3.65;;;;;;;19.33;54.68;101580.13;6157665;23;20018;-80
2022/06/20 08:19:59;;;;;;;12.02;4.00;;;;;;;19.34;57.45;101573.91;6256392;22;20107;-83
2022/06/20 08:22:47;;;;;;;14.00;4.28;;;;;;;19.18;55.13;101536.97;6276338;22;20076;-82
2022/06/20 08:25:21;;;;;;;15.13;4.28;;;;;;;19.55;51.56;101560.69;6276748;22;20011;-81
2022/06/20 08:27:52;;;;;;;12.27;3.50;;;;;;;19.71;49.60;101568.06;6276045;22;20007;-80
2022/06/20 08:30:24;;;;;;;9.10;3.42;;;;;;;19.89;52.11;101560.31;6276814;22;20006;-81
2022/06/20 08:33:01;;;;;;;11.10;3.97;;;;;;;20.12;49.26;101577.41;6276393;22;20019;-83
2022/06/20 08:35:32;;;;;;;17.15;4.38;;;;;;;20.15;48.60;101576.28;6276240;22;20489;-82
2022/06/20 08:38:05;;;;;;;12.90;3.92;;;;;;;20.01;52.18;101581.00;6276648;22;20421;-82
2022/06/20 08:40:58;;;;;;;11.10;4.47;;;;;;;20.13;50.82;101581.69;6276811;22;20035;-81
2022/06/20 08:44:04;;;;;;;10.80;4.43;;;;;;;20.78;52.41;101579.19;6275903;22;20418;-80
2022/06/20 08:46:48;;;;;;;11.27;3.45;;;;;;;20.58;49.61;101586.31;6276456;22;20007;-80
2022/06/20 08:49:38;;;;;;;12.30;3.78;;;;;;;20.51;48.85;101593.09;6276264;22;20042;-80
2022/06/20 08:52:24;;;;;;;10.57;4.05;;;;;;;20.10;50.25;101563.63;6276258;22;20058;-80
2022/06/20 08:55:26;;;;;;;10.40;3.65;;;;;;;20.10;48.83;101596.88;6276044;22;20030;-80
2022/06/20 08:58:06;;;;;;;11.10;4.03;;;;;;;19.82;50.63;101606.41;6276137;22;20004;-81
2022/06/20 09:00:49;;;;;;;12.80;3.80;;;;;;;19.50;51.73;101610.06;6276252;22;20004;-82
2022/06/20 09:03:17;;;;;;;8.88;3.33;;;;;;;19.52;50.72;101609.94;6276031;22;20008;-82
2022/06/20 09:06:19;;;;;;;12.82;4.43;;;;;;;19.67;50.98;101609.44;6276477;22;20010;-80
2022/06/20 09:09:03;;;;;;;9.18;3.10;;;;;;;19.74;48.50;101613.16;6182280;23;20060;-80
2022/06/20 09:11:46;;;;;;;6.78;3.10;;;;;;;19.59;48.61;101609.28;6182466;23;20084;-81
2022/06/20 09:14:37;;;;;;;9.43;3.38;;;;;;;19.58;47.55;101617.28;6182136;23;20080;-80
2022/06/20 09:17:38;;;;;;;13.13;3.60;;;;;;;19.57;50.22;101613.84;6201015;23;20012;-78
2022/06/20 09:20:12;;;;;;;12.27;4.13;;;;;;;19.69;48.56;101614.53;6211295;23;20004;-79
2022/06/20 09:22:57;;;;;;;12.25;3.75;;;;;;;19.79;50.81;101618.00;6187332;23;20019;-81
2022/06/20 09:25:53;;;;;;;16.58;4.30;;;;;;;19.91;48.24;101621.31;6212343;22;20338;-80
2022/06/20 09:28:18;;;;;;;10.00;4.15;;;;;;;20.18;49.62;101610.94;6212462;23;20004;-80
2022/06/20 09:30:58;;;;;;;13.95;4.72;;;;;;;20.45;47.16;101620.75;6212398;23;20015;-81
2022/06/20 09:33:44;;;;;;;12.18;4.63;;;;;;;20.56;48.95;101617.13;6212528;23;20366;-80
2022/06/20 09:36:21;;;;;;;15.18;4.40;;;;;;;20.74;48.37;101615.38;6212473;23;20012;-80
2022/06/20 09:39:04;;;;;;;13.63;4.60;;;;;;;20.53;48.28;101612.13;6212368;23;20031;-80
2022/06/20 09:41:49;;;;;;;13.23;4.07;;;;;;;20.15;47.84;101618.25;6212222;23;20008;-80
2022/06/20 09:44:24;;;;;;;13.82;4.22;;;;;;;19.94;48.66;101631.50;6213956;22;20358;-80
2022/06/20 09:47:14;;;;;;;13.77;3.75;;;;;;;20.00;48.00;101625.72;6275725;22;20000;-77
2022/06/20 09:49:48;;;;;;;13.20;4.85;;;;;;;19.81;46.97;101621.28;6275606;22;20016;-78
2022/06/20 09:52:51;;;;;;;10.85;3.88;;;;;;;19.55;47.81;101626.19;6276079;22;20010;-83
2022/06/20 09:55:24;;;;;;;13.43;5.10;;;;;;;19.24;49.80;101587.94;6275574;22;20022;-80
2022/06/20 09:57:56;;;;;;;13.20;4.55;;;;;;;19.22;46.60;101623.91;6275839;22;20008;-79
2022/06/20 10:00:39;;;;;;;13.65;4.43;;;;;;;19.06;49.03;101609.53;6275773;22;20050;-81
2022/06/20 10:03:29;;;;;;;13.07;4.78;;;;;;;18.92;51.02;101588.97;6275366;22;20004;-80
2022/06/20 10:06:06;;;;;;;14.80;4.60;;;;;;;19.47;51.06;101607.72;6276092;22;20004;-80
2022/06/20 10:08:35;;;;;;;14.30;4.72;;;;;;;19.73;47.22;101613.28;6276020;22;20010;-80
2022/06/20 10:11:26;;;;;;;12.63;4.28;;;;;;;20.00;47.79;101616.06;6274153;22;20012;-80
2022/06/20 10:14:05;;;;;;;15.68;4.88;;;;;;;20.08;47.65;101606.69;6275503;22;20012;-84
2022/06/20 10:16:57;;;;;;;13.50;5.07;;;;;;;19.92;44.89;101623.78;6284787;22;20007;-82
2022/06/20 10:19:32;;;;;;;;;;;;;;;19.86;47.38;101619.09;6212414;23;20063;-82
2022/06/20 10:22:00;;;;;;;11.45;4.68;;;;;;;19.93;46.22;101627.22;6212058;23;19908;-79
2022/06/20 10:24:59;;;;;;;11.27;4.72;;;;;;;20.04;46.58;101627.09;6212093;23;20008;-79
2022/06/20 10:27:27;;;;;;;12.82;5.03;;;;;;;20.41;45.04;101626.38;6186662;23;20136;-83
2022/06/20 10:30:02;;;;;;;11.07;4.60;;;;;;;20.64;46.63;101638.22;6211890;23;20049;-84
2022/06/20 10:32:52;;;;;;;15.10;5.65;;;;;;;20.68;46.91;101638.78;6210866;23;20005;-80
2022/06/20 10:35:43;;;;;;;14.10;5.30;;;;;;;20.45;47.42;101641.72;6212077;23;20008;-84
2022/06/20 10:38:26;;;;;;;14.85;5.22;;;;;;;20.49;45.76;101643.09;6212236;23;20601;-79
2022/06/20 10:41:03;;;;;;;13.60;4.80;;;;;;;20.32;46.08;101589.50;6212073;23;20005;-84
2022/06/20 10:43:43;;;;;;;11.10;4.57;;;;;;;20.82;45.15;101640.91;6212278;23;20008;-85
2022/06/20 10:46:16;;;;;;;11.77;5.07;;;;;;;20.82;43.09;101646.16;6212170;23;20314;-82
2022/06/20 10:49:06;;;;;;;13.82;4.22;;;;;;;21.17;45.48;101648.94;6211959;23;20330;-82
2022/06/20 10:51:43;;;;;;;12.95;4.90;;;;;;;21.41;44.34;101648.41;6213848;23;20032;-82
2022/06/20 10:54:21;;;;;;;11.82;4.40;;;;;;;21.41;44.90;101619.53;6213877;23;20374;-82
2022/06/20 10:57:06;;;;;;;12.30;4.28;;;;;;;20.99;43.97;101535.13;6284515;22;20011;-84
2022/06/20 10:59:56;;;;;;;12.95;4.72;;;;;;;21.27;46.04;101658.63;6308686;22;20003;-83
2022/06/20 11:02:40;;;;;;;16.13;5.35;;;;;;;20.72;45.35;101671.63;6308366;22;20011;-82
2022/06/20 11:05:44;;;;;;;11.30;4.25;;;;;;;20.80;45.51;101663.88;6307795;22;19999;-82
2022/06/20 11:08:29;;;;;;;13.38;4.47;;;;;;;21.46;43.64;101661.97;6303661;22;20379;-83
2022/06/20 11:11:12;;;;;;;13.52;4.38;;;;;;;21.96;45.47;101663.28;6308394;22;19999;-81
2022/06/20 11:13:50;;;;;;;13.43;4.22;;;;;;;21.89;41.75;101665.69;6308406;22;20014;-79
2022/06/20 11:16:24;;;;;;;14.80;4.38;;;;;;;21.87;44.64;101661.56;6307913;22;20065;-81
2022/06/20 11:18:59;;;;;;;13.70;4.38;;;;;;;21.87;43.86;101666.81;6307967;22;20376;-80
2022/06/20 11:21:42;;;;;;;10.43;4.10;;;;;;;22.12;44.24;101673.13;6280942;22;20309;-83
2022/06/20 11:24:34;;;;;;;17.30;6.00;;;;;;;22.08;39.47;101664.75;6281002;22;20508;-85
2022/06/20 11:27:43;;;;;;;13.48;5.07;;;;;;;22.20;42.95;101663.50;6213513;23;20405;-88
2022/06/20 11:30:41;;;;;;;20.10;5.03;;;;;;;21.95;41.28;101667.72;6258136;22;20019;-84
2022/06/20 11:37:01;;;;;;;12.68;3.85;;;;;;;20.65;41.22;101495.53;6307605;22;20022;-87
2022/06/20 11:39:47;;;;;;;11.63;3.85;;;;;;;21.95;41.75;101661.63;6308066;22;20324;-86
2022/06/20 11:43:08;;;;;;;10.07;3.63;;;;;;;20.88;41.10;101469.72;6308049;22;20015;-83
2022/06/20 11:45:57;;;;;;;15.57;4.53;;;;;;;22.16;40.08;101658.72;6203301;22;20074;-83
2022/06/20 11:48:37;;;;;;;13.02;4.30;;;;;;;22.22;39.90;101656.31;6307945;22;20357;-91
2022/06/20 11:51:23;;;;;;;10.20;3.85;;;;;;;22.16;39.40;101658.72;6308119;22;20011;-82
2022/06/20 11:54:07;;;;;;;15.00;4.43;;;;;;;22.11;40.87;101655.72;6307939;22;20087;-91
2022/06/20 11:56:58;;;;;;;10.48;4.00;;;;;;;22.28;41.17;101639.09;6307912;22;20373;-81
2022/06/20 11:59:38;;;;;;;9.80;3.67;;;;;;;22.40;40.09;101643.09;6307740;22;20003;-91
2022/06/20 12:02:28;;;;;;;13.30;4.10;;;;;;;22.27;40.01;101659.31;6256910;22;20017;-87
2022/06/20 12:05:02;;;;;;;10.25;4.28;;;;;;;22.07;39.73;101664.88;6307387;22;20034;-90
2022/06/20 12:07:43;;;;;;;15.18;4.25;;;;;;;22.10;40.82;101657.50;6307345;22;20003;-78
2022/06/20 12:10:39;;;;;;;15.57;4.22;;;;;;;22.56;40.21;101666.91;6306851;22;20022;-93
2022/06/20 12:13:45;;;;;;;10.45;3.63;;;;;;;22.20;39.26;101667.94;6279916;22;20021;-90
2022/06/20 12:16:32;;;;;;;12.23;3.78;;;;;;;21.97;38.28;101665.75;6307608;22;19999;-89
2022/06/20 12:25:04;;;;;;;10.80;3.55;;;;;;;22.00;37.50;101644.41;6307318;22;20018;-84
2022/06/20 12:27:30;;;;;;;10.60;3.38;;;;;;;22.17;38.13;101661.19;6281440;22;20000;-86
2022/06/20 12:29:55;;;;;;;13.43;4.30;;;;;;;22.12;38.46;101665.25;6278651;22;20026;-90
2022/06/20 12:32:29;;;;;;;14.38;4.78;;;;;;;22.13;41.42;101653.78;6279564;22;20003;-87
2022/06/20 12:35:21;;;;;;;11.70;4.57;;;;;;;21.87;40.21;101641.34;6279409;22;20347;-86
2022/06/20 12:37:55;;;;;;;12.07;4.53;;;;;;;21.68;41.54;101665.16;6307536;22;20096;-82
2022/06/20 12:40:27;;;;;;;17.30;5.03;;;;;;;21.37;40.57;101659.38;6307639;22;20000;-87
2022/06/20 12:43:10;;;;;;;13.23;3.95;;;;;;;21.53;42.72;101663.97;6307090;22;19999;-88
2022/06/20 12:46:01;;;;;;;14.52;4.60;;;;;;;21.84;44.06;101656.59;6307166;22;20007;-85
2022/06/20 12:48:48;;;;;;;11.98;4.22;;;;;;;22.05;40.21;101671.09;6307225;22;20011;-84
2022/06/20 12:51:13;;;;;;;10.02;4.03;;;;;;;22.18;41.37;101643.59;6307060;22;20015;-86
2022/06/20 12:54:11;;;;;;;12.27;4.07;;;;;;;22.35;40.61;101666.44;6307211;22;20033;-78
2022/06/20 12:56:50;;;;;;;10.75;4.18;;;;;;;22.31;41.49;101665.09;6305135;22;20007;-86
2022/06/20 12:59:45;;;;;;;14.00;3.85;;;;;;;22.23;41.22;101644.81;6306720;22;20045;-85
2022/06/20 13:02:16;;;;;;;12.88;4.38;;;;;;;22.42;41.28;101664.88;6307162;22;20034;-86
2022/06/20 13:04:47;;;;;;;;;;;;;;;22.56;39.65;101672.19;6307196;22;20094;-86
2022/06/20 13:07:13;;;;;;;13.35;3.25;;;;;;;22.38;40.10;101670.56;6307300;22;19917;-84
2022/06/20 13:09:55;;;;;;;14.13;4.50;;;;;;;22.00;39.37;101675.16;6306813;22;20440;-77
2022/06/20 13:12:36;;;;;;;10.55;4.28;;;;;;;21.56;42.43;101677.69;6306384;22;20007;-83
2022/06/20 13:15:39;;;;;;;11.20;3.97;;;;;;;21.59;43.18;101673.91;6306890;22;20512;-84
2022/06/20 13:18:31;;;;;;;9.38;3.97;;;;;;;21.76;39.59;101686.25;6307372;22;19999;-81
2022/06/20 13:20:57;;;;;;;11.05;4.22;;;;;;;21.58;38.51;101683.59;6307049;22;20007;-80
2022/06/20 13:23:50;;;;;;;11.32;3.90;;;;;;;21.22;41.08;101621.41;6306688;22;20003;-79
2022/06/20 13:26:46;;;;;;;13.65;3.90;;;;;;;21.64;40.66;101684.84;6307247;22;20026;-84
2022/06/20 13:29:32;;;;;;;12.52;3.95;;;;;;;21.54;41.13;101692.78;6306890;22;20078;-83